Time;durP1;ratioP1;P1;durP2;ratioP2;P2;SDS_P1;SDS_P2;PMS_P1;PMS_P2;Temp;Humidity;BMP_temperature;BMP_pressure;BME280_temperature;BME280_humidity;BME280_pressure;Samples;Min_cycle;Max_cycle;Signal;HPM_P1;HPM_P2
2021/09/29 00:01:13;;;;;;;7.13;5.77;;;;;;;11.49;74.29;95806.53;5056308;28;20186;-79
2021/09/29 00:03:38;;;;;;;8.73;5.83;;;;;;;11.44;74.27;95814.75;5071240;28;20233;-79
2021/09/29 00:06:04;;;;;;;7.03;5.80;;;;;;;11.43;74.50;95820.91;5057146;28;20259;-79
2021/09/29 00:08:30;;;;;;;8.67;5.50;;;;;;;11.39;74.69;95810.94;5039585;28;20174;-79
2021/09/29 00:10:55;;;;;;;7.30;5.07;;;;;;;11.46;74.39;95815.41;5072908;28;20247;-80
2021/09/29 00:13:24;;;;;;;6.30;5.27;;;;;;;11.44;74.97;95816.53;5055352;28;20210;-79
2021/09/29 00:15:50;;;;;;;6.53;5.47;;;;;;;11.44;75.11;95806.94;5070768;28;20163;-79
2021/09/29 00:18:16;;;;;;;6.00;5.10;;;;;;;11.48;74.95;95803.06;5053237;28;20173;-79
2021/09/29 00:20:42;;;;;;;5.90;5.00;;;;;;;11.44;74.95;95801.75;5052952;28;20201;-79
2021/09/29 00:23:07;;;;;;;6.90;5.30;;;;;;;11.47;75.25;95804.03;5069512;28;20637;-79
2021/09/29 00:25:32;;;;;;;7.60;5.60;;;;;;;11.48;75.38;95805.69;5052229;28;20209;-79
2021/09/29 00:27:58;;;;;;;8.77;5.17;;;;;;;11.56;75.24;95803.16;5054429;28;20280;-79
2021/09/29 00:30:23;;;;;;;7.67;5.03;;;;;;;11.56;74.77;95799.75;5052864;28;21130;-79
2021/09/29 00:32:48;;;;;;;6.20;5.37;;;;;;;11.53;75.04;95789.66;5069673;28;20174;-79
2021/09/29 00:35:15;;;;;;;7.07;4.90;;;;;;;11.52;75.16;95794.03;5052045;28;20174;-79
2021/09/29 00:37:41;;;;;;;8.23;5.07;;;;;;;11.46;75.55;95794.59;5051880;28;20198;-79
2021/09/29 00:40:07;;;;;;;8.13;5.33;;;;;;;11.54;75.55;95797.28;5053188;28;20208;-79
2021/09/29 00:42:33;;;;;;;8.17;5.03;;;;;;;11.53;75.36;95802.66;5062728;28;20218;-79
2021/09/29 00:44:58;;;;;;;8.73;6.23;;;;;;;11.51;75.56;95797.59;5067844;28;20233;-79
2021/09/29 00:47:23;;;;;;;7.13;5.27;;;;;;;11.52;75.52;95803.63;5069320;28;20205;-79
2021/09/29 00:49:49;;;;;;;5.87;5.13;;;;;;;11.54;75.41;95799.06;5072310;28;20188;-79
2021/09/29 00:52:14;;;;;;;8.40;5.67;;;;;;;11.60;75.38;95801.91;5081200;28;20219;-79
2021/09/29 00:54:41;;;;;;;6.23;5.30;;;;;;;11.67;75.33;95798.75;5063707;28;20204;-80
2021/09/29 00:57:07;;;;;;;7.57;5.27;;;;;;;11.75;75.33;95804.84;5056726;28;20247;-79
2021/09/29 00:59:32;;;;;;;8.20;5.10;;;;;;;11.69;75.29;95796.78;5056578;28;20224;-79
2021/09/29 01:01:57;;;;;;;8.17;5.03;;;;;;;11.71;75.13;95792.25;5056477;28;20181;-80
2021/09/29 01:04:24;;;;;;;8.03;5.63;;;;;;;11.71;75.18;95802.66;5057052;28;20190;-80
2021/09/29 01:07:03;;;;;;;7.43;5.30;;;;;;;11.65;75.34;95788.44;5057531;28;20237;-80
2021/09/29 01:09:49;;;;;;;8.23;5.33;;;;;;;11.61;75.28;95795.75;5058439;28;20213;-80
2021/09/29 01:12:34;;;;;;;5.13;4.60;;;;;;;11.58;75.71;95795.25;5058585;28;20193;-80
2021/09/29 01:15:13;;;;;;;6.57;5.07;;;;;;;11.52;76.22;95803.63;5058833;28;20253;-80
2021/09/29 01:17:41;;;;;;;7.40;5.60;;;;;;;11.53;75.98;95795.66;5057920;28;20205;-80
2021/09/29 01:20:08;;;;;;;7.03;5.00;;;;;;;11.53;76.43;95794.84;5057726;28;20209;-80
2021/09/29 01:23:02;;;;;;;6.40;5.40;;;;;;;11.56;76.43;95794.53;5058344;28;20189;-80
2021/09/29 01:25:57;;;;;;;6.87;5.20;;;;;;;11.64;76.27;95792.03;5056516;28;20282;-80
2021/09/29 01:28:45;;;;;;;8.63;5.50;;;;;;;11.63;76.26;95795.59;5074702;28;20177;-80
2021/09/29 01:31:10;;;;;;;6.67;5.43;;;;;;;11.69;76.41;95800.22;5057989;28;20197;-80
2021/09/29 01:33:37;;;;;;;9.60;6.03;;;;;;;11.66;76.47;95794.47;5056466;28;20181;-80
2021/09/29 01:36:02;;;;;;;7.80;5.93;;;;;;;11.68;76.40;95790.78;5055016;28;20204;-80
2021/09/29 01:38:29;;;;;;;6.47;5.20;;;;;;;11.68;76.27;95795.16;5056519;28;20185;-80
2021/09/29 01:40:55;;;;;;;6.87;4.73;;;;;;;11.66;75.94;95794.47;5057941;28;20174;-80
2021/09/29 01:43:20;;;;;;;6.03;4.90;;;;;;;11.58;76.33;95790.84;5056992;28;20251;-80
2021/09/29 01:45:47;;;;;;;7.67;5.17;;;;;;;11.49;77.03;95794.34;5055984;28;20263;-80
2021/09/29 01:48:12;;;;;;;8.30;5.60;;;;;;;11.45;76.89;95789.56;5056181;28;20213;-80
2021/09/29 01:50:39;;;;;;;6.30;5.13;;;;;;;11.40;77.16;95803.03;5056084;28;20185;-80
2021/09/29 01:53:08;;;;;;;6.40;4.97;;;;;;;11.34;77.25;95790.59;5057263;28;20189;-80
2021/09/29 01:55:33;;;;;;;9.00;5.43;;;;;;;11.25;78.27;95792.28;5056319;28;20170;-80
2021/09/29 01:57:59;;;;;;;5.70;5.17;;;;;;;11.24;77.88;95789.84;5058060;28;20680;-81
2021/09/29 02:00:24;;;;;;;8.43;5.00;;;;;;;11.22;78.34;95794.34;5059172;28;20201;-80
2021/09/29 02:02:55;;;;;;;5.00;4.50;;;;;;;11.20;78.39;95784.09;5057635;28;20222;-80
2021/09/29 02:05:26;;;;;;;10.73;4.60;;;;;;;11.17;78.96;95784.38;5057675;28;20580;-80
2021/09/29 02:07:51;;;;;;;7.07;4.97;;;;;;;11.16;79.01;95787.13;5058685;28;20190;-80
2021/09/29 02:10:17;;;;;;;7.83;4.50;;;;;;;11.24;79.60;95789.84;5057550;28;20284;-80
2021/09/29 02:12:42;;;;;;;7.20;4.93;;;;;;;11.28;79.44;95791.16;5058012;28;20196;-80
2021/09/29 02:15:08;;;;;;;5.73;5.13;;;;;;;11.31;79.24;95790.91;5056758;28;20187;-80
2021/09/29 02:17:33;;;;;;;9.77;5.13;;;;;;;11.34;79.60;95798.38;5058662;28;20197;-80
2021/09/29 02:19:58;;;;;;;9.00;4.33;;;;;;;11.36;79.52;95788.66;5073184;28;20186;-80
2021/09/29 02:22:24;;;;;;;7.00;4.50;;;;;;;11.39;79.39;95796.16;5058632;28;20182;-80
2021/09/29 02:24:49;;;;;;;9.17;4.40;;;;;;;11.41;79.29;95791.66;5057374;28;20198;-80
2021/09/29 02:27:14;;;;;;;5.73;3.60;;;;;;;11.43;79.24;95800.13;5058146;28;20228;-81
2021/09/29 02:29:41;;;;;;;5.17;3.47;;;;;;;11.41;79.57;95807.25;5058005;28;20181;-80
2021/09/29 02:32:07;;;;;;;4.77;3.40;;;;;;;11.53;79.19;95798.25;5059021;28;20537;-80
2021/09/29 02:34:32;;;;;;;4.73;2.80;;;;;;;11.54;79.06;95794.69;5056369;28;20178;-80
2021/09/29 02:36:58;;;;;;;3.83;2.80;;;;;;;11.50;79.26;95801.16;5056034;28;20198;-80
2021/09/29 02:39:23;;;;;;;5.13;2.70;;;;;;;11.49;79.17;95799.53;5056574;28;20577;-80
2021/09/29 02:41:48;;;;;;;4.70;2.70;;;;;;;11.53;78.98;95797.44;5056660;28;20178;-80
2021/09/29 02:44:13;;;;;;;3.77;2.80;;;;;;;11.54;79.20;95797.28;5056423;28;20185;-81
2021/09/29 02:46:40;;;;;;;5.13;2.83;;;;;;;11.55;78.72;95801.53;5056859;28;20240;-80
2021/09/29 02:49:07;;;;;;;3.80;2.57;;;;;;;11.56;78.92;95805.75;5056578;28;20174;-80
2021/09/29 02:51:32;;;;;;;3.80;2.73;;;;;;;11.58;79.28;95822.06;5057055;28;20181;-81
2021/09/29 02:53:58;;;;;;;4.83;3.20;;;;;;;11.56;79.46;95816.16;5055676;28;20182;-81
2021/09/29 02:56:24;;;;;;;3.37;2.67;;;;;;;11.61;79.06;95820.94;5055444;28;20233;-80
2021/09/29 02:58:49;;;;;;;4.70;2.43;;;;;;;11.62;78.77;95820.78;5055873;28;20166;-80
2021/09/29 03:01:15;;;;;;;4.80;2.70;;;;;;;11.63;78.52;95819.81;5055244;28;20767;-80
2021/09/29 03:03:40;;;;;;;5.20;2.60;;;;;;;11.63;78.52;95814.63;5054568;28;20268;-80
2021/09/29 03:06:05;;;;;;;3.90;2.27;;;;;;;11.68;78.32;95815.97;5055691;28;20214;-80
2021/09/29 03:08:31;;;;;;;5.73;2.80;;;;;;;11.67;78.37;95817.75;5055022;28;20256;-80
2021/09/29 03:10:56;;;;;;;5.77;2.40;;;;;;;11.70;78.03;95811.44;5054728;28;20247;-80
2021/09/29 03:13:21;;;;;;;5.27;2.37;;;;;;;11.69;78.15;95822.81;5055009;28;20182;-81
2021/09/29 03:15:47;;;;;;;3.60;2.03;;;;;;;11.68;78.33;95821.19;5055824;28;20169;-80
2021/09/29 03:18:14;;;;;;;4.20;2.40;;;;;;;11.66;78.59;95831.72;5055010;28;20751;-80
2021/09/29 03:20:39;;;;;;;4.50;2.30;;;;;;;11.74;78.00;95833.56;5071947;28;20181;-81
2021/09/29 03:23:04;;;;;;;6.97;2.20;;;;;;;11.84;77.58;95839.59;5055829;28;20182;-80
2021/09/29 03:25:30;;;;;;;4.03;2.27;;;;;;;11.79;77.66;95833.97;5054384;28;20250;-80
2021/09/29 03:27:55;;;;;;;6.33;2.07;;;;;;;11.79;77.76;95833.97;5056357;28;20200;-80
2021/09/29 03:30:20;;;;;;;5.77;2.17;;;;;;;11.83;77.45;95837.91;5055209;28;20257;-80
2021/09/29 03:32:46;;;;;;;4.30;2.10;;;;;;;11.89;77.31;95834.75;5056032;28;20181;-80
2021/09/29 03:35:12;;;;;;;2.57;1.97;;;;;;;11.94;77.02;95840.31;5055087;28;20188;-80
2021/09/29 03:37:39;;;;;;;4.00;2.30;;;;;;;11.95;77.00;95844.56;5054517;28;20198;-80
2021/09/29 03:40:06;;;;;;;6.13;1.90;;;;;;;11.97;76.68;95844.41;5055840;28;20177;-80
2021/09/29 03:42:31;;;;;;;3.13;1.97;;;;;;;11.91;76.84;95841.41;5055723;28;20272;-81
2021/09/29 03:44:57;;;;;;;4.87;1.97;;;;;;;11.84;76.84;95839.59;5055255;28;20283;-80
2021/09/29 03:47:22;;;;;;;2.40;2.07;;;;;;;11.82;77.14;95841.50;5054516;28;20339;-81
2021/09/29 03:49:47;;;;;;;3.20;1.90;;;;;;;11.79;76.71;95847.78;5072070;28;20194;-80
2021/09/29 03:52:13;;;;;;;5.83;1.87;;;;;;;11.75;76.53;95856.88;5055371;28;20280;-80
2021/09/29 03:54:38;;;;;;;6.53;1.80;;;;;;;11.69;77.01;95854.84;5054252;28;20205;-80
2021/09/29 03:57:04;;;;;;;5.50;2.73;;;;;;;11.66;77.16;95856.91;5055073;28;20190;-80
2021/09/29 03:59:29;;;;;;;2.90;1.93;;;;;;;11.63;76.86;95853.63;5055509;28;20208;-80
2021/09/29 04:01:55;;;;;;;4.93;2.07;;;;;;;11.59;77.17;95852.31;5055018;28;20261;-80
2021/09/29 04:04:20;;;;;;;3.53;2.20;;;;;;;11.62;77.09;95859.00;5054484;28;20177;-80
2021/09/29 04:06:46;;;;;;;4.03;1.90;;;;;;;11.58;76.94;95857.66;5057379;28;20287;-81
2021/09/29 04:09:11;;;;;;;4.97;2.00;;;;;;;11.56;76.77;95859.56;5055751;28;20224;-80
2021/09/29 04:11:38;;;;;;;4.50;2.07;;;;;;;11.55;76.78;95861.34;5059431;28;20186;-80
2021/09/29 04:14:03;;;;;;;4.07;1.60;;;;;;;11.55;76.79;95861.34;5055723;28;20178;-80
2021/09/29 04:16:29;;;;;;;4.30;1.77;;;;;;;11.56;76.82;95857.78;5059568;28;20636;-81
2021/09/29 04:18:54;;;;;;;4.27;2.20;;;;;;;11.50;77.04;95855.78;5073909;28;20634;-80
2021/09/29 04:21:19;;;;;;;4.27;1.80;;;;;;;11.50;77.04;95868.78;5056533;28;20209;-81
2021/09/29 04:23:45;;;;;;;3.97;1.90;;;;;;;11.53;76.75;95865.88;5055814;28;20192;-80
2021/09/29 04:26:10;;;;;;;2.87;1.90;;;;;;;11.45;77.23;95870.19;5059487;28;20202;-80
2021/09/29 04:28:35;;;;;;;3.57;1.87;;;;;;;11.42;77.31;95875.69;5059902;28;20185;-81
2021/09/29 04:31:02;;;;;;;3.50;1.93;;;;;;;11.33;77.66;95870.38;5055947;28;20185;-80
2021/09/29 04:33:28;;;;;;;3.70;1.90;;;;;;;11.35;77.33;95875.44;5058211;28;20268;-79
2021/09/29 04:35:53;;;;;;;3.17;1.90;;;;;;;11.30;77.36;95877.63;5056819;28;20194;-79
2021/09/29 04:38:19;;;;;;;1.90;1.60;;;;;;;11.35;77.08;95875.44;5056470;28;20681;-80
2021/09/29 04:40:44;;;;;;;6.03;1.83;;;;;;;11.29;76.74;95873.38;5057062;28;20180;-80
2021/09/29 04:43:09;;;;;;;2.93;2.30;;;;;;;11.37;76.33;95877.88;5073280;28;20170;-80
2021/09/29 04:45:35;;;;;;;3.17;2.20;;;;;;;11.32;76.14;95878.31;5055468;28;20240;-80
2021/09/29 04:48:02;;;;;;;3.30;1.90;;;;;;;11.23;76.56;95884.38;5089945;28;20201;-80
2021/09/29 04:50:27;;;;;;;4.70;2.53;;;;;;;11.18;76.73;95882.19;5090877;28;20269;-80
2021/09/29 04:52:53;;;;;;;3.53;1.90;;;;;;;11.16;76.24;95885.91;5057416;28;20272;-80
2021/09/29 04:55:18;;;;;;;3.57;1.83;;;;;;;11.10;76.57;95881.28;5056104;28;20182;-79
2021/09/29 04:57:44;;;;;;;5.87;1.77;;;;;;;11.05;76.53;95884.31;5057024;28;20224;-80
2021/09/29 05:00:09;;;;;;;3.97;1.63;;;;;;;10.94;77.08;95882.69;5056684;28;20755;-80
2021/09/29 05:02:37;;;;;;;3.27;1.83;;;;;;;10.92;77.38;95883.78;5057687;28;20221;-80
2021/09/29 05:05:03;;;;;;;4.47;1.90;;;;;;;10.89;77.29;95890.09;5055372;28;20624;-80
2021/09/29 05:07:29;;;;;;;4.53;1.80;;;;;;;10.89;77.22;95884.09;5055992;28;20198;-80
2021/09/29 05:09:55;;;;;;;4.43;1.90;;;;;;;10.84;77.30;95881.91;5057647;28;20216;-80
2021/09/29 05:12:30;;;;;;;3.63;1.60;;;;;;;10.80;77.22;95888.34;5072628;28;20182;-79
2021/09/29 05:14:56;;;;;;;4.70;1.90;;;;;;;10.81;77.36;95884.78;5070515;28;20234;-79
2021/09/29 05:17:21;;;;;;;8.30;1.83;;;;;;;10.89;76.70;95886.69;5055701;28;20205;-80
2021/09/29 05:19:47;;;;;;;3.93;2.00;;;;;;;10.96;76.23;95888.59;5055283;28;20178;-79
2021/09/29 05:22:12;;;;;;;2.43;1.60;;;;;;;11.07;75.15;95882.38;5055582;28;20174;-79
2021/09/29 05:24:37;;;;;;;2.40;1.80;;;;;;;11.14;75.22;95878.25;5054420;28;20198;-79
2021/09/29 05:27:03;;;;;;;5.70;2.00;;;;;;;11.24;74.31;95878.22;5055358;28;20202;-79
2021/09/29 05:29:30;;;;;;;2.63;1.37;;;;;;;11.16;74.66;95872.91;5066291;28;20192;-79
2021/09/29 05:31:55;;;;;;;4.70;1.53;;;;;;;11.15;74.32;95879.09;5064570;28;20701;-79
2021/09/29 05:34:24;;;;;;;3.17;1.57;;;;;;;11.23;73.71;95887.81;5087695;28;20177;-78
2021/09/29 05:36:49;;;;;;;2.37;1.33;;;;;;;11.23;73.70;95879.19;5052125;28;20224;-78
2021/09/29 05:39:14;;;;;;;7.13;1.67;;;;;;;11.29;73.12;95881.19;5082420;28;20212;-80
2021/09/29 05:41:40;;;;;;;7.03;1.70;;;;;;;11.33;73.05;95887.75;5089881;28;20181;-80
2021/09/29 05:44:05;;;;;;;4.27;1.50;;;;;;;11.33;72.64;95883.38;5072004;28;20267;-80
2021/09/29 05:46:30;;;;;;;3.07;2.07;;;;;;;11.38;72.41;95887.31;5075791;28;20212;-80
2021/09/29 05:48:56;;;;;;;2.30;1.57;;;;;;;11.32;72.94;95886.94;5084489;28;20193;-81
2021/09/29 05:51:22;;;;;;;5.47;1.83;;;;;;;11.31;72.75;95889.69;5101665;28;20268;-80
2021/09/29 05:53:47;;;;;;;3.90;1.50;;;;;;;11.31;73.14;95892.28;5079047;28;20220;-81
2021/09/29 05:56:14;;;;;;;1.77;1.53;;;;;;;11.29;72.98;95900.22;5073768;28;20235;-80
2021/09/29 05:58:40;;;;;;;1.90;1.50;;;;;;;11.33;72.51;95908.56;5081735;28;20276;-80
2021/09/29 06:01:05;;;;;;;5.37;1.63;;;;;;;11.38;72.66;95906.34;5082608;28;20177;-82
2021/09/29 06:03:31;;;;;;;2.33;1.33;;;;;;;11.33;72.69;95906.78;5091811;28;20223;-80
2021/09/29 06:05:56;;;;;;;2.37;1.50;;;;;;;11.45;72.62;95906.59;5097577;28;20704;-81
2021/09/29 06:08:22;;;;;;;2.30;1.63;;;;;;;11.54;72.45;95908.31;5081216;28;20200;-80
2021/09/29 06:10:47;;;;;;;2.47;1.70;;;;;;;11.67;71.96;95910.59;5101726;28;20651;-80
2021/09/29 06:13:12;;;;;;;3.67;1.77;;;;;;;11.78;71.82;95919.00;5080896;28;20680;-81
2021/09/29 06:15:44;;;;;;;2.47;1.50;;;;;;;11.88;71.39;95908.56;5070991;28;20636;-79
2021/09/29 06:18:13;;;;;;;5.10;1.73;;;;;;;12.04;71.10;95919.16;5088486;28;20688;-80
2021/09/29 06:20:43;;;;;;;3.33;1.70;;;;;;;12.04;71.15;95919.16;5069204;28;20179;-82
2021/09/29 06:23:08;;;;;;;2.77;1.57;;;;;;;11.97;70.48;95925.91;5060972;28;20241;-81
2021/09/29 06:25:33;;;;;;;2.53;1.60;;;;;;;12.05;70.29;95925.19;5079863;28;20263;-82
2021/09/29 06:27:59;;;;;;;2.37;1.80;;;;;;;12.12;69.98;95918.41;5075140;28;20196;-82
2021/09/29 06:30:24;;;;;;;5.13;1.40;;;;;;;12.11;69.72;95920.22;5074319;28;20185;-83
2021/09/29 06:32:50;;;;;;;6.40;1.80;;;;;;;12.18;68.77;95916.03;5060575;28;20199;-81
2021/09/29 06:35:15;;;;;;;2.00;1.20;;;;;;;12.33;68.93;95931.13;5080403;28;20197;-82
2021/09/29 06:37:44;;;;;;;4.17;1.67;;;;;;;12.43;68.12;95924.06;5093631;28;20200;-82
2021/09/29 06:40:14;;;;;;;4.43;1.40;;;;;;;12.38;67.44;95926.31;5079037;28;20319;-81
2021/09/29 06:42:40;;;;;;;4.33;1.40;;;;;;;12.34;67.43;95928.38;5064243;28;20176;-82
2021/09/29 06:45:07;;;;;;;4.63;1.40;;;;;;;12.32;67.19;95930.31;5079823;28;20238;-82
2021/09/29 06:47:32;;;;;;;5.07;1.57;;;;;;;12.33;67.61;95934.56;5081439;28;20779;-82
2021/09/29 06:49:57;;;;;;;3.37;1.20;;;;;;;12.46;67.32;95932.41;5100008;28;20212;-81
2021/09/29 06:52:23;;;;;;;5.23;1.30;;;;;;;12.50;67.13;95927.72;5078684;28;20188;-83
2021/09/29 06:54:48;;;;;;;2.43;1.27;;;;;;;12.42;67.21;95933.66;5061875;28;20215;-82
2021/09/29 06:57:13;;;;;;;3.80;1.23;;;;;;;12.45;67.62;95937.75;5063856;28;20238;-78
2021/09/29 06:59:39;;;;;;;2.33;1.17;;;;;;;12.40;67.64;95925.19;5097769;28;20191;-81
2021/09/29 07:02:05;;;;;;;4.70;1.53;;;;;;;12.45;67.93;95932.53;5061793;28;20208;-82
2021/09/29 07:04:30;;;;;;;2.13;1.20;;;;;;;12.48;67.66;95930.47;5072725;28;20748;-82
2021/09/29 07:06:56;;;;;;;2.80;1.50;;;;;;;12.60;67.92;95925.03;5093452;28;20236;-82
2021/09/29 07:09:21;;;;;;;3.00;1.20;;;;;;;12.58;67.91;95922.56;5094026;28;20256;-82
2021/09/29 07:11:46;;;;;;;5.37;1.27;;;;;;;12.66;68.13;95919.22;5078228;28;20247;-81
2021/09/29 07:14:12;;;;;;;1.73;1.10;;;;;;;12.73;67.31;95921.06;5096006;28;20188;-81
2021/09/29 07:16:37;;;;;;;3.87;1.40;;;;;;;12.68;66.36;95920.69;5063715;28;20306;-82
2021/09/29 07:19:03;;;;;;;3.27;1.50;;;;;;;12.83;66.60;95912.34;5062404;28;20197;-82
2021/09/29 07:21:29;;;;;;;4.43;1.40;;;;;;;12.85;66.05;95913.81;5059563;28;20191;-81
2021/09/29 07:23:55;;;;;;;2.87;1.40;;;;;;;12.86;66.55;95912.03;5094163;28;20204;-82
2021/09/29 07:26:20;;;;;;;1.67;1.13;;;;;;;12.79;67.35;95919.63;5064484;28;20208;-81
2021/09/29 07:28:48;;;;;;;5.33;1.37;;;;;;;12.78;67.31;95923.19;5100156;28;20180;-80
2021/09/29 07:31:14;;;;;;;4.20;1.30;;;;;;;12.87;66.84;95921.47;5066340;28;20933;-81
2021/09/29 07:33:39;;;;;;;2.03;1.10;;;;;;;12.83;66.14;95917.56;5091506;28;20725;-82
2021/09/29 07:36:04;;;;;;;2.73;1.30;;;;;;;12.97;66.14;95922.19;5074244;28;20173;-82
2021/09/29 07:38:30;;;;;;;1.20;1.03;;;;;;;13.04;66.13;95928.44;5091450;28;20191;-82
2021/09/29 07:40:55;;;;;;;4.97;1.47;;;;;;;13.13;66.14;95921.47;5083787;28;20583;-82
2021/09/29 07:43:21;;;;;;;4.47;1.20;;;;;;;13.18;65.75;95919.25;5066805;28;20168;-80
2021/09/29 07:45:46;;;;;;;2.50;1.33;;;;;;;13.20;65.89;95914.72;5101165;28;20196;-80
2021/09/29 07:48:11;;;;;;;2.10;0.97;;;;;;;13.11;64.99;95923.44;5063680;28;20223;-79
2021/09/29 07:50:37;;;;;;;2.93;1.17;;;;;;;13.12;64.72;95925.88;5056074;28;20266;-80
2021/09/29 07:53:02;;;;;;;1.93;0.93;;;;;;;13.19;64.57;95916.50;5074573;28;20279;-80
2021/09/29 07:55:28;;;;;;;3.43;1.10;;;;;;;13.25;65.15;95915.91;5073558;28;20182;-81
2021/09/29 07:57:53;;;;;;;3.00;0.90;;;;;;;13.20;63.91;95912.09;5092957;28;20231;-80
2021/09/29 08:00:19;;;;;;;4.10;1.20;;;;;;;13.23;64.09;95917.81;5078018;28;20663;-80
2021/09/29 08:02:44;;;;;;;2.73;1.10;;;;;;;13.25;63.29;95921.09;5075087;28;20529;-80
2021/09/29 08:05:11;;;;;;;5.70;1.30;;;;;;;13.30;62.55;95918.03;5077053;28;20212;-81
2021/09/29 08:07:38;;;;;;;2.07;1.13;;;;;;;13.35;62.74;95925.41;5059908;28;20208;-81
2021/09/29 08:10:04;;;;;;;3.00;1.07;;;;;;;13.46;62.38;95925.13;5058782;28;20181;-80
2021/09/29 08:12:30;;;;;;;1.97;1.00;;;;;;;13.53;61.80;95923.53;5073305;28;20177;-79
2021/09/29 08:14:55;;;;;;;4.47;1.10;;;;;;;13.59;60.10;95926.31;5075163;28;20251;-80
2021/09/29 08:17:20;;;;;;;3.57;1.10;;;;;;;13.60;60.90;95929.72;5067105;28;20196;-83
2021/09/29 08:19:46;;;;;;;2.03;1.20;;;;;;;13.77;60.84;95926.22;5079514;28;20176;-82
2021/09/29 08:22:12;;;;;;;1.30;0.80;;;;;;;13.85;60.10;95926.25;5091532;28;20185;-79
2021/09/29 08:24:49;;;;;;;2.40;1.03;;;;;;;13.84;58.96;95940.28;5076490;28;20193;-80
2021/09/29 08:32:27;;;;;;;2.63;0.90;;;;;;;14.28;55.97;95932.22;5078969;28;20207;-80
2021/09/29 08:34:58;;;;;;;2.23;0.87;;;;;;;14.69;56.15;95933.13;5079997;28;20180;-82
2021/09/29 08:40:13;;;;;;;0.80;0.70;;;;;;;15.19;54.94;95939.09;5095193;28;20268;-81
2021/09/29 08:45:41;;;;;;;3.70;0.80;;;;;;;15.43;53.69;95946.91;5081424;28;20216;-80
2021/09/29 08:50:56;;;;;;;3.43;0.83;;;;;;;15.41;52.05;95946.25;5081070;28;20185;-79
2021/09/29 09:15:19;;;;;;;4.67;1.30;;;;;;;14.95;52.75;95942.59;5082841;28;20191;-79
2021/09/29 09:17:41;;;;;;;5.83;1.17;;;;;;;15.01;53.02;95940.09;5097865;28;20207;-79
2021/09/29 09:20:19;;;;;;;2.23;1.07;;;;;;;14.87;52.81;95934.75;5080431;28;20196;-79
2021/09/29 09:22:49;;;;;;;2.67;1.10;;;;;;;15.01;53.45;95934.88;5075398;28;20204;-82
2021/09/29 09:25:15;;;;;;;2.23;1.03;;;;;;;15.01;53.75;95939.28;5076339;28;20610;-80
2021/09/29 09:27:44;;;;;;;6.00;1.10;;;;;;;15.09;54.31;95939.28;5097899;28;20227;-81
2021/09/29 09:30:11;;;;;;;4.40;1.00;;;;;;;15.09;54.20;95933.22;5061838;28;20172;-79
2021/09/29 09:32:44;;;;;;;3.53;0.90;;;;;;;15.16;53.24;95939.44;5074244;28;20655;-80
2021/09/29 09:35:13;;;;;;;5.20;1.23;;;;;;;15.22;54.68;95936.97;5088621;28;20632;-80
2021/09/29 09:37:40;;;;;;;3.87;0.93;;;;;;;15.42;54.28;95940.03;5072725;28;20196;-79
2021/09/29 09:40:16;;;;;;;2.97;0.90;;;;;;;15.46;53.61;95933.50;5071425;28;20176;-79
2021/09/29 09:42:44;;;;;;;3.53;1.17;;;;;;;15.89;53.35;95933.19;5106300;28;20229;-80
2021/09/29 09:45:10;;;;;;;3.77;1.17;;;;;;;15.98;52.85;95935.59;5109831;28;20272;-80
2021/09/29 09:47:46;;;;;;;2.63;0.80;;;;;;;16.31;52.22;95935.41;5059309;28;20617;-80
2021/09/29 09:50:23;;;;;;;2.17;0.95;;;;;;;16.20;51.33;95926.16;5057095;28;20180;-81
2021/09/29 09:52:49;;;;;;;3.85;1.35;;;;;;;16.59;51.51;95918.16;5079937;28;20181;-80
2021/09/29 09:55:19;;;;;;;3.03;0.85;;;;;;;16.66;50.23;95915.66;5080201;28;20243;-81
2021/09/29 09:57:53;;;;;;;3.78;1.05;;;;;;;16.70;50.95;95920.44;5061361;28;20200;-80
2021/09/29 10:00:25;;;;;;;4.20;1.10;;;;;;;16.59;50.23;95915.56;5075628;28;20542;-82
2021/09/29 10:02:51;;;;;;;4.13;1.15;;;;;;;16.50;50.52;95906.13;5061004;28;20185;-81
2021/09/29 10:05:19;;;;;;;3.90;1.10;;;;;;;16.08;51.38;95907.41;5056182;28;20699;-80
2021/09/29 10:07:48;;;;;;;2.50;1.05;;;;;;;16.09;51.29;95919.50;5067801;28;20973;-81
2021/09/29 10:10:57;;;;;;;5.22;0.95;;;;;;;15.86;51.10;95905.53;5067484;28;20180;-81
2021/09/29 10:27:10;;;;;;;3.35;0.98;;;;;;;15.95;52.80;95909.75;5089983;28;20216;-81
2021/09/29 10:29:42;;;;;;;3.97;0.68;;;;;;;15.75;53.15;95913.78;5071543;28;20215;-82
2021/09/29 10:32:26;;;;;;;3.88;1.10;;;;;;;15.71;53.87;95915.91;5065717;28;20214;-80
2021/09/29 10:35:11;;;;;;;2.83;0.90;;;;;;;15.63;53.91;95909.88;5055163;28;20200;-80
2021/09/29 10:48:46;;;;;;;2.22;0.70;;;;;;;15.51;55.10;95897.16;5073415;28;20890;-81
2021/09/29 10:51:36;;;;;;;2.25;0.93;;;;;;;15.80;55.14;95901.78;5073950;28;20184;-80
2021/09/29 11:27:43;;;;;;;0.95;0.52;;;;;;;16.05;50.92;95871.06;5078122;28;20238;-80
2021/09/29 11:30:19;;;;;;;5.32;0.80;;;;;;;16.23;50.71;95872.56;5074959;28;20192;-82
2021/09/29 11:33:21;;;;;;;1.92;0.70;;;;;;;16.49;50.16;95864.34;5067137;28;20188;-83
2021/09/29 11:35:49;;;;;;;1.10;0.73;;;;;;;16.28;50.38;95867.63;5073943;28;20598;-80
2021/09/29 11:38:37;;;;;;;4.07;0.70;;;;;;;16.60;50.33;95859.50;5066288;28;20203;-80
2021/09/29 12:08:41;;;;;;;1.95;0.47;;;;;;;17.70;48.34;95846.56;5093214;28;20195;-81
2021/09/29 12:11:16;;;;;;;1.73;0.60;;;;;;;17.76;49.17;95858.97;5094302;28;20191;-81
2021/09/29 12:13:44;;;;;;;1.20;0.52;;;;;;;17.54;48.25;95860.69;5060124;28;20370;-81
2021/09/29 12:16:11;;;;;;;2.00;0.93;;;;;;;17.65;49.57;95862.03;5075202;28;20264;-81
2021/09/29 12:18:36;;;;;;;1.50;0.73;;;;;;;17.80;50.19;95870.72;5069900;28;20215;-80
2021/09/29 12:21:02;;;;;;;2.78;0.70;;;;;;;17.50;50.70;95869.13;5098273;28;20279;-78
2021/09/29 12:23:28;;;;;;;1.60;0.70;;;;;;;17.23;50.85;95866.16;5098565;28;20648;-80
2021/09/29 12:26:07;;;;;;;2.33;1.05;;;;;;;17.55;51.95;95864.13;5077811;28;20211;-80
2021/09/29 12:28:46;;;;;;;3.40;0.73;;;;;;;17.48;52.64;95877.16;5094114;28;20191;-79
2021/09/29 12:31:30;;;;;;;1.30;0.80;;;;;;;17.36;52.57;95867.31;5092693;28;20168;-79
2021/09/29 12:34:09;;;;;;;3.13;0.70;;;;;;;16.71;53.37;95876.66;5049981;28;20718;-78
2021/09/29 12:44:13;;;;;;;6.20;1.10;;;;;;;16.12;56.90;95851.03;5073105;28;20209;-78
2021/09/29 12:46:40;;;;;;;3.47;1.10;;;;;;;15.61;59.05;95869.97;5060988;28;20292;-78
2021/09/29 12:49:16;;;;;;;2.33;0.80;;;;;;;15.47;60.00;95866.28;5045871;28;20204;-78
2021/09/29 12:51:51;;;;;;;1.67;0.80;;;;;;;15.49;60.03;95877.38;5045456;28;20179;-78
2021/09/29 12:54:20;;;;;;;4.30;1.10;;;;;;;15.52;59.58;95879.63;5044399;28;20211;-78
2021/09/29 12:56:46;;;;;;;1.92;0.75;;;;;;;15.88;61.16;95882.59;5061510;28;20232;-78
2021/09/29 12:59:11;;;;;;;1.38;0.80;;;;;;;15.51;64.48;95897.16;5060498;28;20181;-78
2021/09/29 13:01:36;;;;;;;1.05;0.77;;;;;;;15.43;63.60;95888.50;5078117;28;20185;-78
2021/09/29 13:04:01;;;;;;;3.58;1.00;;;;;;;15.45;64.11;95902.25;5059978;28;20181;-79
2021/09/29 13:06:27;;;;;;;1.90;0.90;;;;;;;15.21;64.19;95905.75;5069787;28;20236;-77
2021/09/29 13:08:52;;;;;;;1.00;0.60;;;;;;;15.58;62.70;95899.91;5095274;28;20197;-78
2021/09/29 13:11:17;;;;;;;5.28;0.80;;;;;;;15.78;61.91;95900.34;5074991;28;20201;-77
2021/09/29 13:13:43;;;;;;;4.30;1.30;;;;;;;15.93;61.81;95901.25;5094060;28;20190;-78
2021/09/29 13:16:08;;;;;;;4.07;0.70;;;;;;;16.12;61.85;95913.09;5059052;28;20193;-78
2021/09/29 13:21:30;;;;;;;3.20;0.88;;;;;;;15.57;64.67;95930.50;5077469;28;20173;-78
2021/09/29 13:26:37;;;;;;;1.42;0.70;;;;;;;15.07;70.06;95938.63;5073829;28;20229;-79
2021/09/29 13:37:09;;;;;;;1.57;0.80;;;;;;;14.54;71.53;95980.97;5062879;28;20236;-77
2021/09/29 13:39:35;;;;;;;0.63;0.60;;;;;;;14.51;71.52;95974.25;5071035;28;20169;-78
2021/09/29 13:42:02;;;;;;;2.00;0.60;;;;;;;14.35;72.41;95982.84;5080759;28;20245;-79
2021/09/29 13:44:27;;;;;;;1.33;0.50;;;;;;;14.29;73.43;95988.72;5064550;28;20205;-77
2021/09/29 13:46:53;;;;;;;3.03;0.60;;;;;;;14.27;73.29;95995.06;5064405;28;20205;-77
2021/09/29 13:49:20;;;;;;;0.97;0.50;;;;;;;14.06;74.54;95990.28;5080231;28;20165;-75
2021/09/29 13:51:48;;;;;;;0.87;0.40;;;;;;;13.82;75.25;95991.81;5064380;28;20169;-78
2021/09/29 13:54:22;;;;;;;0.70;0.70;;;;;;;13.64;76.72;96000.72;5081389;28;20173;-77
2021/09/29 13:57:11;;;;;;;0.90;0.47;;;;;;;13.46;73.55;96001.59;5064791;28;20219;-78
2021/09/29 13:59:46;;;;;;;0.73;0.40;;;;;;;13.16;74.82;95995.00;5080960;28;20170;-78